Time;durP1;ratioP1;P1;durP2;ratioP2;P2;SDS_P1;SDS_P2;PMS_P1;PMS_P2;Temp;Humidity;BMP_temperature;BMP_pressure;BME280_temperature;BME280_humidity;BME280_pressure;Samples;Min_cycle;Max_cycle;Signal;HPM_P1;HPM_P2
2022/12/07 00:01:51;;;;;;;18.70;10.30;;;;;;;;;;5073764;28;20023;-74
2022/12/07 00:04:18;;;;;;;18.90;9.80;;;;;;;;;;5073505;28;20031;-74
2022/12/07 00:06:46;;;;;;;17.67;10.20;;;;;;;;;;5073535;28;20027;-74
2022/12/07 00:09:14;;;;;;;17.35;10.18;;;;;;;;;;5073097;28;20024;-74
2022/12/07 00:11:40;;;;;;;19.48;10.10;;;;;;;;;;5073462;28;20486;-74
2022/12/07 00:14:08;;;;;;;18.70;10.10;;;;;;;;;;5073348;28;20020;-74
2022/12/07 00:16:35;;;;;;;21.10;9.88;;;;;;;;;;5073345;28;20024;-74
2022/12/07 00:19:02;;;;;;;19.88;10.38;;;;;;;;;;5073358;28;20033;-74
2022/12/07 00:21:30;;;;;;;18.65;10.38;;;;;;;;;;5073250;28;20023;-74
2022/12/07 00:23:56;;;;;;;18.65;9.82;;;;;;;;;;5072794;28;20032;-74
2022/12/07 00:26:24;;;;;;;15.82;9.23;;;;;;;;;;5073193;28;20025;-74
2022/12/07 00:29:01;;;;;;;16.02;8.90;;;;;;;;;;5073164;28;20024;-74
2022/12/07 00:31:29;;;;;;;14.18;7.97;;;;;;;;;;5072969;28;20023;-74
2022/12/07 00:33:55;;;;;;;16.63;8.50;;;;;;;;;;5072990;28;20032;-74
2022/12/07 00:36:22;;;;;;;15.65;7.63;;;;;;;;;;5072754;28;20477;-74
2022/12/07 00:38:49;;;;;;;15.75;7.70;;;;;;;;;;5072783;28;20066;-74
2022/12/07 00:41:20;;;;;;;14.32;8.00;;;;;;;;;;5072987;28;20032;-74
2022/12/07 00:43:47;;;;;;;16.30;8.35;;;;;;;;;;5072758;28;20028;-74
2022/12/07 00:46:13;;;;;;;16.35;8.13;;;;;;;;;;5072967;28;20021;-74
2022/12/07 00:48:40;;;;;;;17.40;8.02;;;;;;;;;;5072684;28;20483;-74
2022/12/07 00:51:06;;;;;;;16.73;8.57;;;;;;;;;;5070907;28;20017;-73
2022/12/07 00:53:36;;;;;;;14.27;7.57;;;;;;;;;;5072650;28;20021;-74
2022/12/07 00:56:09;;;;;;;14.02;6.93;;;;;;;;;;5072651;28;20023;-74
2022/12/07 00:58:36;;;;;;;12.55;7.45;;;;;;;;;;5072547;28;20036;-74
2022/12/07 01:01:03;;;;;;;16.77;7.82;;;;;;;;;;5072526;28;20370;-74
2022/12/07 01:03:29;;;;;;;15.15;7.82;;;;;;;;;;5072387;28;20024;-75
2022/12/07 01:05:56;;;;;;;15.10;7.72;;;;;;;;;;5072351;28;20025;-74
2022/12/07 01:08:23;;;;;;;17.27;7.20;;;;;;;;;;5072358;28;20025;-74
2022/12/07 01:10:50;;;;;;;16.90;7.53;;;;;;;;;;5072779;28;20029;-74
2022/12/07 01:13:16;;;;;;;14.55;7.88;;;;;;;;;;5072223;28;20469;-74
2022/12/07 01:15:43;;;;;;;11.27;6.15;;;;;;;;;;5072133;28;20032;-74
2022/12/07 01:18:10;;;;;;;9.88;5.85;;;;;;;;;;5070994;28;20059;-74
2022/12/07 01:20:37;;;;;;;12.02;5.80;;;;;;;;;;5071829;28;20033;-74
2022/12/07 01:23:03;;;;;;;9.60;5.53;;;;;;;;;;5072037;28;20397;-74
2022/12/07 01:25:30;;;;;;;13.82;5.82;;;;;;;;;;5072327;28;20028;-74
2022/12/07 01:27:56;;;;;;;8.80;5.20;;;;;;;;;;5072130;28;20435;-74
2022/12/07 01:30:23;;;;;;;10.52;5.00;;;;;;;;;;5072158;28;20020;-74
2022/12/07 01:32:49;;;;;;;9.70;5.50;;;;;;;;;;5072349;28;20031;-74
2022/12/07 01:35:15;;;;;;;10.10;5.18;;;;;;;;;;5071761;28;20034;-74
2022/12/07 01:37:42;;;;;;;7.50;4.55;;;;;;;;;;5071914;28;20032;-74
2022/12/07 01:40:08;;;;;;;9.95;5.18;;;;;;;;;;5071975;28;20033;-74
2022/12/07 01:42:35;;;;;;;12.10;6.05;;;;;;;;;;5072124;28;20038;-74
2022/12/07 01:45:19;;;;;;;10.32;5.50;;;;;;;;;;5071938;28;20028;-74
2022/12/07 01:47:52;;;;;;;13.73;5.95;;;;;;;;;;5071830;28;20021;-74
2022/12/07 01:50:19;;;;;;;10.13;5.53;;;;;;;;;;5071913;28;20509;-74
2022/12/07 01:52:46;;;;;;;9.38;5.38;;;;;;;;;;5072016;28;20040;-74
2022/12/07 01:55:14;;;;;;;9.80;5.85;;;;;;;;;;5072095;28;20085;-74
2022/12/07 01:57:41;;;;;;;8.52;5.03;;;;;;;;;;5071770;28;20531;-75
2022/12/07 02:00:08;;;;;;;10.18;5.63;;;;;;;;;;5071839;28;20029;-74
2022/12/07 02:02:55;;;;;;;9.32;5.53;;;;;;;;;;5071639;28;20077;-74
2022/12/07 02:05:22;;;;;;;11.77;6.45;;;;;;;;;;5071230;28;20042;-74
2022/12/07 02:07:49;;;;;;;10.10;5.82;;;;;;;;;;5071993;28;20021;-74
2022/12/07 02:10:20;;;;;;;8.05;5.03;;;;;;;;;;5071779;28;20064;-74
2022/12/07 02:12:48;;;;;;;11.10;6.00;;;;;;;;;;5071525;28;20069;-74
2022/12/07 02:15:14;;;;;;;12.93;6.50;;;;;;;;;;5071677;28;20039;-74
2022/12/07 02:17:40;;;;;;;12.48;6.30;;;;;;;;;;5071604;28;20028;-74
2022/12/07 02:20:07;;;;;;;18.83;7.78;;;;;;;;;;5072565;28;20040;-74
2022/12/07 02:22:33;;;;;;;10.82;6.28;;;;;;;;;;5075380;28;20032;-74
2022/12/07 02:25:15;;;;;;;12.15;6.80;;;;;;;;;;5075625;28;20029;-73
2022/12/07 02:27:51;;;;;;;12.55;6.55;;;;;;;;;;5075486;28;20359;-73
2022/12/07 02:30:21;;;;;;;10.45;5.97;;;;;;;;;;5075633;28;20026;-74
2022/12/07 02:33:00;;;;;;;11.50;5.57;;;;;;;;;;5074917;28;20388;-73
2022/12/07 02:35:32;;;;;;;7.93;4.60;;;;;;;;;;5075162;28;20036;-74
2022/12/07 02:38:09;;;;;;;11.52;5.72;;;;;;;;;;5074795;28;20390;-73
2022/12/07 02:40:35;;;;;;;10.73;5.35;;;;;;;;;;5074958;28;20028;-74
2022/12/07 02:43:07;;;;;;;14.45;7.07;;;;;;;;;;5075399;28;20016;-74
2022/12/07 02:45:34;;;;;;;15.77;7.07;;;;;;;;;;5090545;28;20031;-74
2022/12/07 02:48:01;;;;;;;12.60;6.10;;;;;;;;;;5074935;28;20036;-74
2022/12/07 02:50:28;;;;;;;12.07;5.63;;;;;;;;;;5074970;28;20013;-74
2022/12/07 02:52:54;;;;;;;17.92;7.78;;;;;;;;;;5074883;28;20499;-74
2022/12/07 02:55:24;;;;;;;14.90;7.90;;;;;;;;;;5074827;28;20416;-74
2022/12/07 02:57:55;;;;;;;16.23;8.05;;;;;;;;;;5074738;28;20029;-74
2022/12/07 03:00:22;;;;;;;13.80;7.40;;;;;;;;;;5075006;28;20094;-73
2022/12/07 03:03:06;;;;;;;16.13;7.70;;;;;;;;;;5074289;28;20051;-74
2022/12/07 03:05:36;;;;;;;15.82;6.38;;;;;;;;;;5073497;28;20402;-74
2022/12/07 03:08:18;;;;;;;13.43;7.47;;;;;;;;;;5074566;28;20024;-74
2022/12/07 03:10:57;;;;;;;17.63;8.38;;;;;;;;;;5074443;28;20489;-73
2022/12/07 03:13:27;;;;;;;14.40;6.65;;;;;;;;;;5074643;28;20421;-73
2022/12/07 03:15:56;;;;;;;36.40;17.42;;;;;;;;;;5074199;28;20023;-74
2022/12/07 03:18:24;;;;;;;27.13;12.70;;;;;;;;;;5074676;28;20051;-74
2022/12/07 03:20:52;;;;;;;17.30;8.95;;;;;;;;;;5074222;28;20485;-74
2022/12/07 03:23:19;;;;;;;10.93;6.32;;;;;;;;;;5074322;28;20027;-74
2022/12/07 03:25:48;;;;;;;10.88;5.70;;;;;;;;;;5074349;28;20024;-72
2022/12/07 03:28:16;;;;;;;9.45;5.13;;;;;;;;;;5074104;28;20388;-74
2022/12/07 03:30:44;;;;;;;14.45;6.65;;;;;;;;;;5073539;28;20393;-74
2022/12/07 03:33:13;;;;;;;12.88;6.80;;;;;;;;;;5074280;28;20031;-74
2022/12/07 03:35:42;;;;;;;14.43;6.72;;;;;;;;;;5074093;28;20021;-74
2022/12/07 03:38:11;;;;;;;11.75;6.22;;;;;;;;;;5072693;28;20044;-74
2022/12/07 03:40:44;;;;;;;14.52;6.47;;;;;;;;;;5074196;28;20043;-74
2022/12/07 03:43:11;;;;;;;12.27;6.22;;;;;;;;;;5073942;28;20515;-74
2022/12/07 03:45:42;;;;;;;11.57;5.57;;;;;;;;;;5073840;28;20029;-74
2022/12/07 03:48:44;;;;;;;12.35;5.95;;;;;;;;;;5072903;28;20032;-74
2022/12/07 03:51:14;;;;;;;16.45;6.65;;;;;;;;;;5031663;28;20030;-74
2022/12/07 03:53:43;;;;;;;13.55;6.50;;;;;;;;;;5031868;28;20042;-74
2022/12/07 03:56:10;;;;;;;13.45;6.07;;;;;;;;;;5031934;28;20127;-74
2022/12/07 03:58:36;;;;;;;14.52;6.30;;;;;;;;;;5031467;28;20503;-74
2022/12/07 04:01:03;;;;;;;17.00;6.15;;;;;;;;;;5031343;28;20032;-74
2022/12/07 04:03:29;;;;;;;16.90;7.15;;;;;;;;;;5031503;28;20039;-74
2022/12/07 04:05:56;;;;;;;12.43;6.05;;;;;;;;;;5015208;28;20057;-74
2022/12/07 04:08:22;;;;;;;15.43;6.20;;;;;;;;;;5031363;28;20022;-74
2022/12/07 04:10:48;;;;;;;15.52;6.93;;;;;;;;;;5031391;28;20098;-73
2022/12/07 04:13:15;;;;;;;11.23;6.07;;;;;;;;;;5031249;28;20044;-74
2022/12/07 04:15:41;;;;;;;14.13;6.28;;;;;;;;;;5031060;28;20025;-74
2022/12/07 04:18:07;;;;;;;15.57;6.60;;;;;;;;;;5031105;28;20072;-74
2022/12/07 04:20:34;;;;;;;16.92;7.70;;;;;;;;;;5031098;28;20025;-73
2022/12/07 04:23:00;;;;;;;15.98;7.38;;;;;;;;;;5031258;28;20041;-74
2022/12/07 04:25:26;;;;;;;17.02;7.82;;;;;;;;;;5057696;28;20047;-74
2022/12/07 04:27:53;;;;;;;15.20;7.05;;;;;;;;;;5073050;28;20404;-74
2022/12/07 04:30:20;;;;;;;12.23;5.80;;;;;;;;;;5071482;28;20021;-74
2022/12/07 04:32:46;;;;;;;13.23;6.25;;;;;;;;;;5073105;28;20032;-74
2022/12/07 04:35:12;;;;;;;9.98;5.63;;;;;;;;;;5072943;28;20028;-74
2022/12/07 04:37:39;;;;;;;10.80;5.20;;;;;;;;;;5072871;28;20043;-74
2022/12/07 04:40:07;;;;;;;9.30;4.57;;;;;;;;;;5073224;28;20032;-74
2022/12/07 04:42:33;;;;;;;13.40;5.07;;;;;;;;;;5071970;28;20017;-74
2022/12/07 04:45:00;;;;;;;9.82;4.93;;;;;;;;;;5072425;28;20024;-74
2022/12/07 04:47:26;;;;;;;8.57;4.70;;;;;;;;;;5072807;28;20031;-74
2022/12/07 04:49:52;;;;;;;8.18;4.55;;;;;;;;;;5072606;28;20065;-74
2022/12/07 04:52:19;;;;;;;8.85;4.25;;;;;;;;;;5072887;28;20085;-74
2022/12/07 04:54:45;;;;;;;7.60;4.28;;;;;;;;;;5072567;28;20384;-73
2022/12/07 04:57:11;;;;;;;7.32;3.80;;;;;;;;;;5072899;28;20039;-74
2022/12/07 04:59:38;;;;;;;6.43;4.38;;;;;;;;;;5072237;28;20042;-74
2022/12/07 05:02:04;;;;;;;8.80;4.88;;;;;;;;;;5072721;28;20354;-74
2022/12/07 05:04:30;;;;;;;7.03;4.10;;;;;;;;;;5072664;28;20029;-74
2022/12/07 05:06:57;;;;;;;6.43;3.90;;;;;;;;;;5072447;28;20029;-74
2022/12/07 05:09:23;;;;;;;7.15;4.13;;;;;;;;;;5072297;28;20032;-74
2022/12/07 05:11:49;;;;;;;7.40;4.05;;;;;;;;;;5072161;28;20025;-74
2022/12/07 05:14:17;;;;;;;10.98;5.25;;;;;;;;;;5072308;28;20047;-74
2022/12/07 05:16:44;;;;;;;10.50;5.82;;;;;;;;;;5072204;28;20524;-74
2022/12/07 05:19:11;;;;;;;10.70;5.80;;;;;;;;;;5072195;28;20040;-74
2022/12/07 05:21:37;;;;;;;11.73;5.95;;;;;;;;;;5072322;28;20031;-74
2022/12/07 05:24:04;;;;;;;10.85;6.05;;;;;;;;;;5072059;28;20031;-74
2022/12/07 05:26:31;;;;;;;8.13;5.28;;;;;;;;;;5071791;28;20026;-74
2022/12/07 05:28:57;;;;;;;10.20;5.00;;;;;;;;;;5072505;28;20029;-74
2022/12/07 05:31:25;;;;;;;9.02;4.68;;;;;;;;;;5072402;28;20031;-74
2022/12/07 05:33:51;;;;;;;10.45;4.80;;;;;;;;;;5072345;28;20025;-74
2022/12/07 05:36:18;;;;;;;12.18;6.30;;;;;;;;;;5072165;28;20429;-74
2022/12/07 05:38:44;;;;;;;10.45;5.45;;;;;;;;;;5070694;28;20103;-74
2022/12/07 05:42:11;;;;;;;10.30;5.28;;;;;;;;;;5071501;28;20023;-74
2022/12/07 05:44:00;;;;;;;8.48;4.85;;;;;;;;;;5071867;28;20027;-73
2022/12/07 05:46:26;;;;;;;10.45;5.50;;;;;;;;;;5071951;28;20027;-74
2022/12/07 05:48:52;;;;;;;10.93;5.38;;;;;;;;;;5072355;28;20029;-74
2022/12/07 05:51:19;;;;;;;7.82;4.80;;;;;;;;;;5071719;28;20031;-74
2022/12/07 05:53:45;;;;;;;7.15;3.80;;;;;;;;;;5072597;28;20494;-74
2022/12/07 05:56:12;;;;;;;7.03;4.05;;;;;;;;;;5075708;28;20020;-74
2022/12/07 06:01:23;;;;;;;12.38;5.57;;;;;;;;;;5075975;28;20500;-73
2022/12/07 06:03:50;;;;;;;15.32;6.57;;;;;;;;;;5075928;28;20081;-74
2022/12/07 06:06:16;;;;;;;18.50;8.05;;;;;;;;;;5075835;28;20013;-74
2022/12/07 06:08:42;;;;;;;20.83;10.10;;;;;;;;;;5075577;28;20469;-73
2022/12/07 06:13:54;;;;;;;15.27;8.68;;;;;;;;;;5075605;28;20036;-74
2022/12/07 06:16:20;;;;;;;15.00;7.97;;;;;;;;;;5075760;28;20028;-74
2022/12/07 06:18:46;;;;;;;13.77;6.90;;;;;;;;;;5075347;28;20413;-73
2022/12/07 06:21:14;;;;;;;12.68;6.90;;;;;;;;;;5075950;28;20013;-74
2022/12/07 06:23:40;;;;;;;12.50;6.72;;;;;;;;;;5075370;28;20089;-74
2022/12/07 06:26:06;;;;;;;9.75;6.28;;;;;;;;;;5075121;28;20055;-74
2022/12/07 06:28:33;;;;;;;13.48;7.50;;;;;;;;;;5075401;28;20038;-73
2022/12/07 06:31:00;;;;;;;15.07;7.63;;;;;;;;;;5075207;28;20439;-74
2022/12/07 06:33:26;;;;;;;18.40;8.55;;;;;;;;;;5075164;28;20024;-74
2022/12/07 06:35:53;;;;;;;18.90;9.10;;;;;;;;;;5075233;28;20025;-74
2022/12/07 06:38:19;;;;;;;13.07;7.45;;;;;;;;;;5075006;28;20508;-74
2022/12/07 06:40:46;;;;;;;16.75;8.60;;;;;;;;;;5074864;28;20054;-74
2022/12/07 06:43:12;;;;;;;32.00;14.10;;;;;;;;;;5074849;28;20522;-74
2022/12/07 06:45:38;;;;;;;53.90;20.80;;;;;;;;;;5075276;28;20496;-74
2022/12/07 06:48:05;;;;;;;90.90;33.78;;;;;;;;;;5074990;28;20043;-74
2022/12/07 06:50:31;;;;;;;63.53;23.67;;;;;;;;;;5075135;28;20038;-73
2022/12/07 06:52:57;;;;;;;66.25;25.67;;;;;;;;;;5074929;28;20024;-73
2022/12/07 06:55:23;;;;;;;55.20;19.67;;;;;;;;;;5074867;28;20021;-74
2022/12/07 06:57:50;;;;;;;26.85;12.60;;;;;;;;;;5075051;28;20016;-74
2022/12/07 07:00:16;;;;;;;15.57;8.10;;;;;;;;;;5074919;28;20420;-74
2022/12/07 07:02:43;;;;;;;17.08;8.02;;;;;;;;;;5074902;28;20013;-74
2022/12/07 07:05:09;;;;;;;14.00;7.28;;;;;;;;;;5074638;28;20089;-74
2022/12/07 07:07:35;;;;;;;15.07;8.13;;;;;;;;;;5073735;28;20039;-74
2022/12/07 07:10:02;;;;;;;28.65;11.98;;;;;;;;;;5074242;28;20034;-72
2022/12/07 07:12:28;;;;;;;20.38;9.95;;;;;;;;;;5074459;28;20074;-73
2022/12/07 07:14:54;;;;;;;22.23;8.77;;;;;;;;;;5074555;28;20016;-73
2022/12/07 07:17:21;;;;;;;16.50;8.70;;;;;;;;;;5064168;28;20073;-73
2022/12/07 07:19:47;;;;;;;15.45;7.07;;;;;;;;;;5068637;28;20036;-73
2022/12/07 07:22:13;;;;;;;13.43;6.68;;;;;;;;;;5073774;28;20397;-74
2022/12/07 07:24:40;;;;;;;15.10;6.40;;;;;;;;;;5074003;28;20378;-73
2022/12/07 07:27:07;;;;;;;14.07;8.20;;;;;;;;;;5073910;28;20008;-74
2022/12/07 07:29:33;;;;;;;15.60;8.90;;;;;;;;;;5074165;28;20404;-73
2022/12/07 07:32:00;;;;;;;15.18;7.50;;;;;;;;;;5071648;28;20021;-72
2022/12/07 07:34:29;;;;;;;14.15;7.50;;;;;;;;;;5060566;28;20041;-74
2022/12/07 07:36:56;;;;;;;20.60;8.45;;;;;;;;;;5069942;28;20044;-73
2022/12/07 07:39:22;;;;;;;19.48;10.48;;;;;;;;;;5073427;28;20052;-74
2022/12/07 07:41:48;;;;;;;29.92;12.05;;;;;;;;;;5073681;28;20033;-74
2022/12/07 07:44:15;;;;;;;29.30;11.77;;;;;;;;;;5073493;28;20036;-73
2022/12/07 07:46:41;;;;;;;20.17;9.93;;;;;;;;;;5073478;28;20033;-73
2022/12/07 07:49:07;;;;;;;18.40;9.20;;;;;;;;;;5073665;28;20519;-73
2022/12/07 07:51:34;;;;;;;22.75;10.05;;;;;;;;;;5073564;28;20270;-74
2022/12/07 07:54:00;;;;;;;26.63;10.80;;;;;;;;;;5073625;28;20176;-74
2022/12/07 07:56:26;;;;;;;22.42;10.77;;;;;;;;;;5073070;28;20028;-74
2022/12/07 07:58:53;;;;;;;37.47;17.35;;;;;;;;;;5073695;28;20037;-73
2022/12/07 08:01:19;;;;;;;30.90;14.40;;;;;;;;;;5070223;28;20040;-72
2022/12/07 08:03:48;;;;;;;30.90;16.15;;;;;;;;;;5068399;28;20500;-72
2022/12/07 08:06:15;;;;;;;14.13;7.20;;;;;;;;;;5069331;28;20522;-72
2022/12/07 08:08:42;;;;;;;20.08;10.45;;;;;;;;;;5072945;28;20033;-72
2022/12/07 08:11:09;;;;;;;45.08;23.92;;;;;;;;;;5072950;28;20832;-73
2022/12/07 08:13:35;;;;;;;20.48;10.65;;;;;;;;;;5071642;28;20037;-74
2022/12/07 08:16:05;;;;;;;19.83;12.27;;;;;;;;;;5072223;28;20042;-73
2022/12/07 08:18:35;;;;;;;23.55;11.07;;;;;;;;;;5071615;28;20021;-73
2022/12/07 08:21:01;;;;;;;19.35;10.77;;;;;;;;;;5069568;28;20025;-73
2022/12/07 08:23:28;;;;;;;18.83;9.32;;;;;;;;;;5070020;28;20023;-72
2022/12/07 08:25:54;;;;;;;16.17;8.57;;;;;;;;;;5072367;28;20027;-73
2022/12/07 08:28:21;;;;;;;14.27;8.45;;;;;;;;;;5069752;28;20028;-73
2022/12/07 08:30:47;;;;;;;21.45;10.25;;;;;;;;;;5072353;28;20020;-74
2022/12/07 08:33:13;;;;;;;15.57;9.05;;;;;;;;;;5072134;28;20393;-73
2022/12/07 08:35:39;;;;;;;29.95;17.90;;;;;;;;;;5071985;28;20029;-72
2022/12/07 08:38:06;;;;;;;33.75;18.55;;;;;;;;;;5072039;28;20509;-74
2022/12/07 08:40:32;;;;;;;34.92;18.40;;;;;;;;;;5071928;28;20035;-73
2022/12/07 08:42:58;;;;;;;33.33;17.88;;;;;;;;;;5071964;28;20020;-73
2022/12/07 08:45:25;;;;;;;32.70;18.30;;;;;;;;;;5071883;28;20036;-73
2022/12/07 08:47:54;;;;;;;34.90;19.55;;;;;;;;;;5072072;28;20381;-73
2022/12/07 08:50:20;;;;;;;32.90;17.45;;;;;;;;;;5068933;28;20024;-73
2022/12/07 08:52:49;;;;;;;33.72;18.63;;;;;;;;;;5071868;28;20028;-73
2022/12/07 08:55:15;;;;;;;23.05;13.93;;;;;;;;;;5071768;28;20020;-72
2022/12/07 08:57:42;;;;;;;21.73;12.23;;;;;;;;;;5071804;28;20028;-73
2022/12/07 09:00:09;;;;;;;33.55;18.17;;;;;;;;;;5071786;28;20114;-72
2022/12/07 09:02:35;;;;;;;41.35;17.60;;;;;;;;;;5071651;28;20031;-73
2022/12/07 09:05:02;;;;;;;29.38;17.23;;;;;;;;;;5066577;28;20037;-74
2022/12/07 09:07:31;;;;;;;32.53;16.88;;;;;;;;;;5070493;28;20024;-73
2022/12/07 09:09:57;;;;;;;34.65;18.38;;;;;;;;;;5070309;28;20519;-74
2022/12/07 09:12:23;;;;;;;35.30;18.13;;;;;;;;;;5071315;28;20027;-73
2022/12/07 09:14:49;;;;;;;32.45;19.40;;;;;;;;;;5071574;28;20017;-73
2022/12/07 09:17:16;;;;;;;32.85;17.65;;;;;;;;;;5071303;28;20039;-74
2022/12/07 09:19:43;;;;;;;23.30;14.90;;;;;;;;;;5071723;28;20397;-73
2022/12/07 09:22:09;;;;;;;21.25;13.27;;;;;;;;;;5071923;28;20037;-74
2022/12/07 09:24:35;;;;;;;25.20;13.48;;;;;;;;;;5071672;28;20055;-73
2022/12/07 09:27:02;;;;;;;26.30;12.82;;;;;;;;;;5071417;28;20024;-73
2022/12/07 09:29:28;;;;;;;22.08;12.68;;;;;;;;;;5071287;28;20577;-73
2022/12/07 09:31:54;;;;;;;19.77;11.77;;;;;;;;;;5071745;28;20029;-73
2022/12/07 09:34:21;;;;;;;19.50;11.02;;;;;;;;;;5071758;28;20036;-73
2022/12/07 09:36:47;;;;;;;21.75;11.65;;;;;;;;;;5071325;28;20498;-74
2022/12/07 09:39:15;;;;;;;17.58;10.27;;;;;;;;;;5071159;28;20048;-73
2022/12/07 09:41:43;;;;;;;18.75;11.30;;;;;;;;;;5071585;28;20028;-72
2022/12/07 09:44:14;;;;;;;15.38;8.50;;;;;;;;;;5070698;28;20031;-73
2022/12/07 09:46:41;;;;;;;11.32;6.20;;;;;;;;;;5071864;28;20035;-74
2022/12/07 09:49:34;;;;;;;33.30;6.68;;;;;;;;;;5071156;28;20035;-73
2022/12/07 09:52:09;;;;;;;18.15;7.00;;;;;;;;;;5068819;28;20543;-75
2022/12/07 09:54:41;;;;;;;12.10;7.35;;;;;;;;;;5071322;28;20515;-72
2022/12/07 09:57:09;;;;;;;15.27;7.10;;;;;;;;;;5071532;28;20469;-74
2022/12/07 09:59:35;;;;;;;14.35;6.50;;;;;;;;;;5071397;28;20036;-74
2022/12/07 10:02:22;;;;;;;11.13;7.20;;;;;;;;;;5070908;28;20028;-74
2022/12/07 10:04:48;;;;;;;11.75;7.07;;;;;;;;;;5069619;28;20032;-74
2022/12/07 10:07:14;;;;;;;14.15;7.63;;;;;;;;;;5071394;28;20025;-74
2022/12/07 10:09:41;;;;;;;12.38;7.30;;;;;;;;;;5071412;28;20513;-74
2022/12/07 10:12:12;;;;;;;13.30;6.60;;;;;;;;;;5070723;28;20027;-74
2022/12/07 10:14:38;;;;;;;;;;;;;;;;;;5071868;28;20017;-72
2022/12/07 10:17:24;;;;;;;12.18;6.85;;;;;;;;;;5052159;28;19915;-75
2022/12/07 10:19:50;;;;;;;12.23;7.03;;;;;;;;;;5071002;28;20452;-73
2022/12/07 10:22:17;;;;;;;9.00;6.53;;;;;;;;;;5071399;28;20035;-74
2022/12/07 10:24:45;;;;;;;12.40;6.90;;;;;;;;;;5071217;28;20024;-74
2022/12/07 10:27:19;;;;;;;14.00;7.47;;;;;;;;;;5071311;28;20025;-73
2022/12/07 10:29:52;;;;;;;13.45;7.43;;;;;;;;;;5071216;28;20371;-74
2022/12/07 10:32:19;;;;;;;17.42;7.95;;;;;;;;;;5059473;28;20031;-73
2022/12/07 10:34:45;;;;;;;11.15;7.43;;;;;;;;;;5069857;28;20377;-73
2022/12/07 10:37:15;;;;;;;11.45;7.38;;;;;;;;;;5065189;28;20048;-74
2022/12/07 10:39:46;;;;;;;10.27;6.38;;;;;;;;;;5049759;28;20042;-73
2022/12/07 10:42:12;;;;;;;;;;;;;;;;;;5068972;28;20020;-74
2022/12/07 10:44:42;;;;;;;8.45;5.65;;;;;;;;;;5073296;28;19908;-74
2022/12/07 10:47:27;;;;;;;8.32;5.63;;;;;;;;;;5070894;28;20032;-73
2022/12/07 10:50:02;;;;;;;8.27;5.70;;;;;;;;;;5071239;28;20016;-74
2022/12/07 10:52:41;;;;;;;10.65;6.47;;;;;;;;;;5074500;28;20371;-74
2022/12/07 10:55:22;;;;;;;8.50;5.75;;;;;;;;;;5073720;28;20023;-73
2022/12/07 10:57:48;;;;;;;;;;;;;;;;;;5074239;28;20031;-73
2022/12/07 11:00:20;;;;;;;11.85;6.50;;;;;;;;;;5062848;28;19912;-74
2022/12/07 11:03:01;;;;;;;11.20;6.65;;;;;;;;;;5073228;28;20039;-74
2022/12/07 11:05:28;;;;;;;13.55;7.95;;;;;;;;;;5069070;28;20039;-74
2022/12/07 11:07:54;;;;;;;13.77;7.75;;;;;;;;;;5074067;28;20017;-74
2022/12/07 11:10:20;;;;;;;13.88;7.35;;;;;;;;;;5072666;28;20035;-74
2022/12/07 11:13:15;;;;;;;12.15;6.70;;;;;;;;;;5074688;28;20024;-74
2022/12/07 11:15:48;;;;;;;11.77;7.38;;;;;;;;;;5074245;28;20024;-74
2022/12/07 11:18:14;;;;;;;16.25;7.82;;;;;;;;;;5073055;28;20029;-73
2022/12/07 11:20:46;;;;;;;12.18;8.07;;;;;;;;;;5072821;28;20035;-74
2022/12/07 11:23:24;;;;;;;12.60;8.43;;;;;;;;;;5073908;28;20035;-74
2022/12/07 11:26:06;;;;;;;11.38;7.18;;;;;;;;;;5073992;28;20020;-74
2022/12/07 11:29:08;;;;;;;13.85;9.82;;;;;;;;;;5074384;28;20020;-74
2022/12/07 11:31:53;;;;;;;15.50;10.10;;;;;;;;;;5031851;28;20541;-73
2022/12/07 11:34:25;;;;;;;13.73;10.02;;;;;;;;;;5031885;28;20038;-74
2022/12/07 11:36:53;;;;;;;15.35;10.65;;;;;;;;;;5031639;28;20045;-73
2022/12/07 11:39:20;;;;;;;14.55;10.65;;;;;;;;;;5031830;28;20053;-74
2022/12/07 11:41:48;;;;;;;18.23;12.55;;;;;;;;;;5032108;28;20072;-73
2022/12/07 11:44:32;;;;;;;18.70;12.20;;;;;;;;;;5031525;28;20510;-73
2022/12/07 11:47:09;;;;;;;19.10;12.50;;;;;;;;;;5031781;28;20037;-73
2022/12/07 11:49:44;;;;;;;16.00;12.30;;;;;;;;;;5031876;28;20029;-73
2022/12/07 11:52:23;;;;;;;16.77;11.95;;;;;;;;;;5031306;28;20500;-73
2022/12/07 11:54:51;;;;;;;21.67;11.50;;;;;;;;;;5031577;28;20041;-73
2022/12/07 11:57:40;;;;;;;15.53;11.27;;;;;;;;;;5031825;28;20038;-73
2022/12/07 12:00:13;;;;;;;15.80;11.20;;;;;;;;;;5031109;28;20106;-74
2022/12/07 12:02:57;;;;;;;14.25;9.80;;;;;;;;;;5031341;28;20035;-74
2022/12/07 12:05:25;;;;;;;12.93;8.82;;;;;;;;;;5041016;28;20036;-74
2022/12/07 12:07:56;;;;;;;12.35;7.78;;;;;;;;;;5053429;28;20390;-74
2022/12/07 12:10:27;;;;;;;12.35;7.47;;;;;;;;;;5053503;28;20021;-73
2022/12/07 12:12:57;;;;;;;10.65;6.80;;;;;;;;;;5053027;28;20424;-73
2022/12/07 12:15:42;;;;;;;7.28;5.93;;;;;;;;;;5053286;28;20031;-74
2022/12/07 12:18:20;;;;;;;12.20;6.30;;;;;;;;;;5053246;28;20416;-73
2022/12/07 12:20:50;;;;;;;9.30;5.68;;;;;;;;;;5054063;28;20033;-73
2022/12/07 12:23:31;;;;;;;6.90;5.40;;;;;;;;;;5073212;28;20408;-74
2022/12/07 12:26:00;;;;;;;7.07;5.28;;;;;;;;;;5073242;28;20062;-73
2022/12/07 12:28:39;;;;;;;7.80;4.57;;;;;;;;;;5072815;28;20024;-74
2022/12/07 12:31:05;;;;;;;6.63;4.90;;;;;;;;;;5073714;28;20035;-74
2022/12/07 12:33:33;;;;;;;6.82;5.38;;;;;;;;;;5072905;28;20031;-73
2022/12/07 12:36:17;;;;;;;10.23;5.40;;;;;;;;;;5072947;28;20490;-74
2022/12/07 12:38:59;;;;;;;10.07;7.57;;;;;;;;;;5072581;28;20044;-74
2022/12/07 12:44:14;;;;;;;8.05;5.72;;;;;;;;;;5066450;28;20035;-74
2022/12/07 12:47:00;;;;;;;6.18;4.47;;;;;;;;;;5072743;28;20024;-73
2022/12/07 12:49:26;;;;;;;8.75;6.03;;;;;;;;;;5072592;28;20016;-74
2022/12/07 12:51:54;;;;;;;7.82;5.80;;;;;;;;;;5072336;28;20493;-74
2022/12/07 12:54:28;;;;;;;8.10;5.60;;;;;;;;;;5072699;28;20039;-74
2022/12/07 12:57:00;;;;;;;6.40;5.32;;;;;;;;;;5072184;28;20371;-74
2022/12/07 12:59:26;;;;;;;9.43;5.30;;;;;;;;;;5072397;28;20040;-74
2022/12/07 13:01:57;;;;;;;14.38;5.20;;;;;;;;;;5072246;28;20024;-74
2022/12/07 13:04:36;;;;;;;8.88;5.15;;;;;;;;;;5072243;28;20032;-74
2022/12/07 13:07:02;;;;;;;7.88;5.45;;;;;;;;;;5072408;28;20477;-74
2022/12/07 13:09:31;;;;;;;9.32;4.70;;;;;;;;;;5072294;28;20514;-73
2022/12/07 13:12:02;;;;;;;5.10;4.20;;;;;;;;;;5072117;28;20020;-74
2022/12/07 13:14:43;;;;;;;6.72;4.20;;;;;;;;;;5071360;28;20038;-73
2022/12/07 13:17:32;;;;;;;4.82;4.05;;;;;;;;;;5068801;28;20024;-74
2022/12/07 13:19:59;;;;;;;5.93;4.03;;;;;;;;;;5029133;28;20046;-73
2022/12/07 13:22:31;;;;;;;7.00;4.78;;;;;;;;;;5029146;28;20029;-73
2022/12/07 13:25:00;;;;;;;5.30;3.97;;;;;;;;;;5029336;28;20067;-73
2022/12/07 13:27:27;;;;;;;6.43;5.20;;;;;;;;;;5029189;28;20521;-74
2022/12/07 13:29:56;;;;;;;12.32;6.13;;;;;;;;;;5029698;28;20033;-73
2022/12/07 13:32:26;;;;;;;7.03;4.97;;;;;;;;;;5029588;28;20021;-73
2022/12/07 13:34:53;;;;;;;6.57;4.97;;;;;;;;;;5029444;28;20013;-73
2022/12/07 13:37:19;;;;;;;6.55;4.75;;;;;;;;;;5029332;28;20082;-73
2022/12/07 13:39:55;;;;;;;5.45;4.38;;;;;;;;;;5029314;28;20132;-74
2022/12/07 13:42:22;;;;;;;7.28;5.53;;;;;;;;;;5029654;28;20048;-74
2022/12/07 13:44:48;;;;;;;6.57;4.82;;;;;;;;;;5030002;28;20088;-73
2022/12/07 13:47:19;;;;;;;8.60;4.90;;;;;;;;;;5029693;28;20422;-73
2022/12/07 13:49:45;;;;;;;;;;;;;;;;;;5030074;28;20047;-74
2022/12/07 13:52:26;;;;;;;6.43;3.22;;;;;;;;;;5029235;28;20374;-74
2022/12/07 13:55:14;;;;;;;3.92;3.15;;;;;;;;;;5029336;28;20561;-74
2022/12/07 13:57:41;;;;;;;5.05;3.20;;;;;;;;;;5047120;28;20422;-73
2022/12/07 14:00:14;;;;;;;7.78;3.60;;;;;;;;;;5050726;28;20041;-74
2022/12/07 14:02:55;;;;;;;5.88;4.10;;;;;;;;;;5049824;28;20037;-74
2022/12/07 14:05:21;;;;;;;;;;;;;;;;;;5050057;28;20020;-73
2022/12/07 14:07:54;;;;;;;7.78;4.10;;;;;;;;;;5051228;28;19913;-73
2022/12/07 14:10:27;;;;;;;9.95;4.32;;;;;;;;;;5051119;28;20028;-73
2022/12/07 14:12:53;;;;;;;8.65;4.53;;;;;;;;;;5050770;28;20028;-73
2022/12/07 14:15:21;;;;;;;7.65;5.05;;;;;;;;;;5052838;28;20385;-74
2022/12/07 14:17:51;;;;;;;9.93;5.60;;;;;;;;;;5054934;28;20059;-73
2022/12/07 14:20:33;;;;;;;7.60;5.33;;;;;;;;;;5055365;28;20036;-73
2022/12/07 14:23:08;;;;;;;9.00;6.18;;;;;;;;;;5054789;28;20078;-73
2022/12/07 14:25:51;;;;;;;10.05;6.18;;;;;;;;;;5055424;28;20017;-74
2022/12/07 14:28:37;;;;;;;16.15;5.80;;;;;;;;;;5055353;28;20035;-73
2022/12/07 14:31:04;;;;;;;14.48;6.95;;;;;;;;;;5055008;28;20017;-74
2022/12/07 14:33:30;;;;;;;13.25;7.28;;;;;;;;;;5055211;28;20035;-73
2022/12/07 14:35:57;;;;;;;13.52;6.40;;;;;;;;;;5055476;28;20028;-73
2022/12/07 14:38:24;;;;;;;10.90;6.30;;;;;;;;;;5070701;28;20052;-73
2022/12/07 14:40:54;;;;;;;13.05;5.97;;;;;;;;;;5074770;28;20497;-73
2022/12/07 14:43:20;;;;;;;9.82;6.20;;;;;;;;;;5074732;28;20029;-73
2022/12/07 14:45:47;;;;;;;10.00;5.70;;;;;;;;;;5075111;28;20393;-72
2022/12/07 14:48:14;;;;;;;11.98;6.15;;;;;;;;;;5074884;28;20032;-73
2022/12/07 14:50:51;;;;;;;10.73;6.35;;;;;;;;;;5075187;28;20020;-73
2022/12/07 14:53:21;;;;;;;11.60;6.18;;;;;;;;;;5074454;28;20024;-73